Time;durP1;ratioP1;P1;durP2;ratioP2;P2;SDS_P1;SDS_P2;PMS_P1;PMS_P2;Temp;Humidity;BMP_temperature;BMP_pressure;BME280_temperature;BME280_humidity;BME280_pressure;Samples;Min_cycle;Max_cycle;Signal;HPM_P1;HPM_P2
2023/10/31 00:00:17;;;;;;;11.75;10.55;;;;;;;15.66;71.39;97625.88;4974620;28;20047;-79
2023/10/31 00:02:44;;;;;;;12.90;11.50;;;;;;;15.66;71.21;97617.09;4973439;28;20085;-77
2023/10/31 00:05:10;;;;;;;14.95;11.60;;;;;;;15.64;71.22;97620.72;4973168;28;20523;-75
2023/10/31 00:07:37;;;;;;;11.65;10.45;;;;;;;15.65;71.34;97626.88;4974396;28;20535;-78
2023/10/31 00:10:04;;;;;;;12.55;11.25;;;;;;;15.64;71.22;97623.38;4974574;28;20093;-82
2023/10/31 00:12:30;;;;;;;14.65;12.38;;;;;;;15.64;71.23;97620.72;4974434;28;20121;-76
2023/10/31 00:14:57;;;;;;;12.88;11.55;;;;;;;15.63;71.65;97616.44;4974552;28;20050;-76
2023/10/31 00:17:23;;;;;;;11.30;10.10;;;;;;;15.63;71.15;97618.28;4974728;28;20609;-76
2023/10/31 00:19:50;;;;;;;10.65;8.95;;;;;;;15.62;71.46;97617.44;4974134;28;20179;-76
2023/10/31 00:22:17;;;;;;;8.80;7.90;;;;;;;15.60;71.40;97614.16;4974461;28;20054;-82
2023/10/31 00:24:43;;;;;;;9.25;8.35;;;;;;;15.59;71.33;97614.31;4973207;28;20085;-79
2023/10/31 00:27:10;;;;;;;8.38;7.57;;;;;;;15.57;71.40;97614.50;4973055;28;20047;-78
2023/10/31 00:29:36;;;;;;;8.65;7.78;;;;;;;15.55;71.37;97611.16;4974114;28;20459;-77
2023/10/31 00:32:03;;;;;;;9.30;7.85;;;;;;;15.53;71.46;97613.19;4972802;28;20047;-78
2023/10/31 00:34:32;;;;;;;8.50;7.68;;;;;;;15.53;71.47;97613.19;4974069;28;20106;-75
2023/10/31 00:36:59;;;;;;;9.02;8.13;;;;;;;15.53;71.63;97615.00;4973958;28;20082;-78
2023/10/31 00:39:25;;;;;;;8.60;7.70;;;;;;;15.52;71.65;97610.69;4972959;28;20106;-77
2023/10/31 00:41:53;;;;;;;9.75;8.75;;;;;;;15.51;71.76;97615.16;4972661;28;20089;-75
2023/10/31 00:44:19;;;;;;;10.20;9.10;;;;;;;15.50;71.79;97614.34;4973914;28;20042;-78
2023/10/31 00:46:46;;;;;;;10.25;8.82;;;;;;;15.52;71.88;97610.69;4973642;28;20133;-77
2023/10/31 00:49:12;;;;;;;10.88;9.32;;;;;;;15.51;71.75;97604.56;4973442;28;20050;-75
2023/10/31 00:51:39;;;;;;;11.98;9.60;;;;;;;15.50;71.65;97609.03;4972385;28;20546;-78
2023/10/31 00:54:06;;;;;;;10.85;9.68;;;;;;;15.50;71.90;97601.09;4973824;28;20101;-76
2023/10/31 00:56:32;;;;;;;12.13;10.48;;;;;;;15.50;71.73;97602.91;4972310;28;20133;-77
2023/10/31 00:58:58;;;;;;;10.73;9.32;;;;;;;15.48;71.84;97605.72;4972168;28;20051;-79
2023/10/31 01:01:25;;;;;;;11.23;9.50;;;;;;;15.48;71.78;97597.78;4973476;28;20055;-78
2023/10/31 01:03:52;;;;;;;10.80;9.70;;;;;;;15.48;71.87;97594.31;4973618;28;20042;-76
2023/10/31 01:06:18;;;;;;;13.77;10.43;;;;;;;15.46;71.92;97588.34;4973565;28;20050;-77
2023/10/31 01:08:45;;;;;;;14.00;10.13;;;;;;;15.44;72.26;97583.22;4973404;28;20089;-80
2023/10/31 01:11:11;;;;;;;10.68;9.45;;;;;;;15.43;72.12;97575.44;4973345;28;20129;-79
2023/10/31 01:13:38;;;;;;;10.63;9.40;;;;;;;15.43;72.09;97572.78;4973309;28;20479;-75
2023/10/31 01:16:05;;;;;;;13.82;10.38;;;;;;;15.43;72.07;97570.13;4973227;28;20043;-79
2023/10/31 01:18:31;;;;;;;13.27;10.73;;;;;;;15.40;72.14;97558.03;4973618;28;20118;-78
2023/10/31 01:20:58;;;;;;;12.10;10.57;;;;;;;15.40;72.13;97563.34;4973194;28;20105;-77
2023/10/31 01:23:24;;;;;;;12.70;11.30;;;;;;;15.41;72.43;97562.38;4973135;28;20129;-78
2023/10/31 01:25:51;;;;;;;13.18;11.73;;;;;;;15.41;72.44;97567.66;4973108;28;20051;-78
2023/10/31 01:28:17;;;;;;;13.90;11.13;;;;;;;15.40;72.28;97566.00;4972910;28;20043;-79
2023/10/31 01:30:44;;;;;;;12.40;9.82;;;;;;;15.42;72.37;97560.53;4971315;28;20502;-76
2023/10/31 01:33:10;;;;;;;11.27;9.43;;;;;;;15.43;72.47;97556.88;4972874;28;20093;-76
2023/10/31 01:35:37;;;;;;;11.32;9.80;;;;;;;15.45;72.45;97558.38;4972979;28;20053;-75
2023/10/31 01:38:04;;;;;;;10.18;9.18;;;;;;;15.44;72.54;97551.41;4973132;28;20042;-75
2023/10/31 01:40:30;;;;;;;11.50;10.32;;;;;;;15.45;72.48;97555.72;4972668;28;20129;-77
2023/10/31 01:42:57;;;;;;;12.65;10.00;;;;;;;15.46;72.45;97549.41;4971456;28;20050;-78
2023/10/31 01:45:23;;;;;;;11.50;8.82;;;;;;;15.46;72.38;97554.72;4972604;28;20051;-82
2023/10/31 01:47:50;;;;;;;8.73;7.80;;;;;;;15.45;72.35;97553.06;4972849;28;20043;-73
2023/10/31 01:50:18;;;;;;;8.45;7.50;;;;;;;15.43;72.46;97552.41;4971250;28;20596;-73
2023/10/31 01:52:44;;;;;;;9.57;7.55;;;;;;;15.43;72.25;97552.41;4972687;28;20078;-75
2023/10/31 01:55:12;;;;;;;8.90;8.00;;;;;;;15.40;72.41;97552.75;4972682;28;20121;-77
2023/10/31 01:57:38;;;;;;;7.53;6.75;;;;;;;15.38;72.36;97546.81;4972225;28;20128;-77
2023/10/31 02:00:06;;;;;;;8.35;7.07;;;;;;;15.36;72.33;97554.91;4972149;28;20121;-75
2023/10/31 02:02:35;;;;;;;7.43;6.68;;;;;;;15.34;72.65;97550.78;4972541;28;20078;-75
2023/10/31 02:05:01;;;;;;;7.50;6.80;;;;;;;15.33;72.42;97554.44;4972656;28;20081;-76
2023/10/31 02:07:28;;;;;;;7.38;6.70;;;;;;;15.31;72.39;97551.13;4972440;28;20109;-75
2023/10/31 02:09:54;;;;;;;7.53;6.82;;;;;;;15.29;72.44;97550.50;4972206;28;20693;-78
2023/10/31 02:12:32;;;;;;;7.50;6.80;;;;;;;15.24;73.44;97549.19;4972291;28;20057;-75
2023/10/31 02:14:59;;;;;;;7.10;6.40;;;;;;;15.26;72.66;97550.81;4972546;28;20073;-79
2023/10/31 02:17:25;;;;;;;6.75;6.07;;;;;;;15.24;72.78;97551.84;4972257;28;20043;-79
2023/10/31 02:19:52;;;;;;;6.47;5.88;;;;;;;15.23;72.61;97557.31;4972274;28;20051;-76
2023/10/31 02:22:19;;;;;;;6.10;5.60;;;;;;;15.22;72.71;97560.97;4972226;28;20158;-79
2023/10/31 02:24:45;;;;;;;5.43;4.93;;;;;;;15.20;72.75;97561.13;4971115;28;20047;-78
2023/10/31 02:27:12;;;;;;;4.43;4.03;;;;;;;15.19;72.56;97562.13;4972360;28;20141;-77
2023/10/31 02:29:41;;;;;;;3.97;3.58;;;;;;;15.16;72.80;97558.97;4972230;28;20134;-74
2023/10/31 02:32:08;;;;;;;4.35;3.90;;;;;;;15.15;72.42;97571.41;4972079;28;20055;-76
2023/10/31 02:34:35;;;;;;;4.43;4.03;;;;;;;15.11;72.50;97573.56;4970904;28;20071;-76
2023/10/31 02:37:01;;;;;;;3.05;2.85;;;;;;;15.08;72.30;97557.19;4970839;28;20098;-78
2023/10/31 02:39:28;;;;;;;3.05;2.58;;;;;;;15.03;72.10;97562.19;4970608;28;20130;-77
2023/10/31 02:41:55;;;;;;;2.22;2.03;;;;;;;14.98;71.92;97565.31;4972287;28;20135;-77
2023/10/31 02:44:21;;;;;;;2.72;2.10;;;;;;;14.92;71.64;97580.06;4972229;28;20047;-76
2023/10/31 02:46:48;;;;;;;2.30;2.08;;;;;;;14.83;71.40;97610.22;4971942;28;20129;-76
2023/10/31 02:49:14;;;;;;;2.42;2.22;;;;;;;14.73;71.15;97591.88;4971934;28;20113;-78
2023/10/31 02:51:41;;;;;;;5.07;2.30;;;;;;;14.62;70.95;97610.72;4970729;28;20137;-82
2023/10/31 02:54:07;;;;;;;2.75;1.70;;;;;;;14.49;71.02;97619.16;4971954;28;20583;-74
2023/10/31 02:56:34;;;;;;;2.05;1.85;;;;;;;14.35;71.05;97631.25;4972132;28;20133;-77
2023/10/31 02:59:00;;;;;;;3.95;1.38;;;;;;;14.21;70.98;97646.78;4972023;28;20138;-76
2023/10/31 03:01:30;;;;;;;1.50;1.40;;;;;;;14.04;70.58;97653.84;4970742;28;20049;-81
2023/10/31 03:03:57;;;;;;;0.90;0.80;;;;;;;13.90;70.26;97684.38;4971763;28;20133;-79
2023/10/31 03:06:23;;;;;;;1.45;0.80;;;;;;;13.74;70.48;97661.38;4971811;28;20042;-77
2023/10/31 03:08:50;;;;;;;1.55;0.70;;;;;;;13.59;70.56;97669.06;4970902;28;20109;-78
2023/10/31 03:11:26;;;;;;;1.05;0.47;;;;;;;13.38;71.08;97668.47;4974362;28;20101;-79
2023/10/31 03:13:53;;;;;;;0.52;0.40;;;;;;;13.29;70.75;97679.97;4975551;28;20142;-76
2023/10/31 03:16:21;;;;;;;0.70;0.40;;;;;;;13.17;71.17;97676.78;4974345;28;20411;-78
2023/10/31 03:18:48;;;;;;;0.80;0.32;;;;;;;13.03;71.20;97686.94;4975461;28;20491;-79
2023/10/31 03:21:14;;;;;;;0.80;0.45;;;;;;;12.94;71.41;97693.13;4973879;28;20047;-76
2023/10/31 03:23:43;;;;;;;0.25;0.25;;;;;;;12.85;71.76;97704.59;4974229;28;20051;-74
2023/10/31 03:26:10;;;;;;;0.80;0.30;;;;;;;12.75;71.83;97717.91;4975403;28;20064;-73
2023/10/31 03:28:36;;;;;;;0.40;0.40;;;;;;;12.67;71.96;97715.19;4974061;28;20043;-73
2023/10/31 03:31:03;;;;;;;1.42;0.50;;;;;;;12.61;72.03;97729.81;4975097;28;20050;-75
2023/10/31 03:33:30;;;;;;;0.30;0.30;;;;;;;12.55;72.12;97733.03;4975101;28;20115;-77
2023/10/31 03:35:56;;;;;;;0.22;0.22;;;;;;;12.50;72.57;97736.16;4974907;28;20114;-76
2023/10/31 03:38:23;;;;;;;1.05;0.25;;;;;;;12.46;72.64;97755.91;4975334;28;20043;-75
2023/10/31 03:40:49;;;;;;;0.55;0.35;;;;;;;12.40;72.51;97754.69;4975259;28;20101;-78
2023/10/31 03:43:16;;;;;;;1.55;0.40;;;;;;;12.34;72.75;97750.81;4974882;28;20042;-77
2023/10/31 03:45:42;;;;;;;1.10;0.60;;;;;;;12.30;72.85;97757.38;4974725;28;20578;-81
2023/10/31 03:48:09;;;;;;;0.57;0.47;;;;;;;12.24;73.02;97756.19;4974909;28;20133;-74
2023/10/31 03:50:35;;;;;;;0.43;0.30;;;;;;;12.23;73.14;97780.06;4973629;28;20054;-76
2023/10/31 03:53:02;;;;;;;0.52;0.52;;;;;;;12.19;73.22;97765.50;4974916;28;20055;-76
2023/10/31 03:55:30;;;;;;;1.75;0.40;;;;;;;12.17;73.42;97783.28;4973728;28;20062;-78
2023/10/31 03:57:56;;;;;;;0.50;0.50;;;;;;;12.14;73.56;97779.13;4974631;28;20042;-81
2023/10/31 04:00:23;;;;;;;1.02;0.63;;;;;;;12.14;73.57;97783.59;4974461;28;20051;-77
2023/10/31 04:02:50;;;;;;;1.73;0.57;;;;;;;12.11;73.74;97787.31;4973276;28;20475;-76
2023/10/31 04:05:16;;;;;;;1.17;0.60;;;;;;;12.10;73.77;97786.50;4974566;28;20440;-75
2023/10/31 04:07:43;;;;;;;2.60;0.80;;;;;;;12.10;73.85;97789.16;4974575;28;20117;-73
2023/10/31 04:10:09;;;;;;;2.53;0.70;;;;;;;12.08;73.75;97783.16;4973310;28;20050;-78
2023/10/31 04:12:36;;;;;;;1.13;0.90;;;;;;;12.06;74.18;97785.13;4974450;28;20051;-76
2023/10/31 04:15:03;;;;;;;2.92;0.82;;;;;;;12.05;74.03;97788.75;4973147;28;20475;-76
2023/10/31 04:17:30;;;;;;;1.75;0.80;;;;;;;12.06;74.28;97794.84;4974394;28;20380;-77
2023/10/31 04:19:57;;;;;;;2.75;1.02;;;;;;;12.05;74.18;97796.66;4974418;28;20046;-78
2023/10/31 04:22:24;;;;;;;3.20;1.30;;;;;;;12.06;74.00;97798.31;4972943;28;20043;-75
2023/10/31 04:24:50;;;;;;;3.33;1.17;;;;;;;12.07;74.23;97799.16;4974439;28;20042;-77
2023/10/31 04:27:17;;;;;;;2.72;1.60;;;;;;;12.06;74.26;97806.22;4974263;28;20055;-77
2023/10/31 04:29:44;;;;;;;2.47;1.60;;;;;;;12.05;74.41;97817.75;4972812;28;20150;-76
2023/10/31 04:32:11;;;;;;;5.70;2.30;;;;;;;12.07;74.08;97822.91;4972779;28;20133;-79
2023/10/31 04:34:38;;;;;;;4.25;2.30;;;;;;;12.07;74.28;97828.97;4972731;28;20743;-76
2023/10/31 04:37:05;;;;;;;3.67;2.78;;;;;;;12.06;74.29;97824.69;4974200;28;20130;-74
2023/10/31 04:39:31;;;;;;;4.25;3.22;;;;;;;12.08;74.33;97829.81;4972684;28;20134;-79
2023/10/31 04:41:58;;;;;;;6.88;3.85;;;;;;;12.08;74.40;97830.63;4973950;28;20050;-80
2023/10/31 04:44:24;;;;;;;5.68;4.18;;;;;;;12.08;74.18;97835.91;4972711;28;20085;-76
2023/10/31 04:46:51;;;;;;;7.00;4.40;;;;;;;12.07;74.33;97834.25;4974100;28;20050;-76
2023/10/31 04:49:17;;;;;;;5.82;4.10;;;;;;;12.07;74.40;97842.16;4973866;28;20085;-77
2023/10/31 04:51:44;;;;;;;6.85;4.82;;;;;;;12.07;74.57;97847.44;4973880;28;20447;-79
2023/10/31 04:54:10;;;;;;;7.00;4.68;;;;;;;12.09;74.37;97848.16;4973688;28;20051;-74
2023/10/31 04:56:37;;;;;;;6.47;4.60;;;;;;;12.08;74.53;97849.09;4972770;28;20043;-74
2023/10/31 04:59:04;;;;;;;7.07;5.43;;;;;;;12.10;74.38;97860.34;4973332;28;20078;-82
2023/10/31 05:01:30;;;;;;;8.25;5.72;;;;;;;12.12;74.29;97860.22;4973805;28;20097;-80
2023/10/31 05:03:57;;;;;;;9.52;5.85;;;;;;;12.12;74.31;97863.66;4972392;28;20051;-76
2023/10/31 05:06:36;;;;;;;7.78;5.55;;;;;;;12.12;74.36;97868.94;4973566;28;20046;-76
2023/10/31 05:09:03;;;;;;;7.25;5.63;;;;;;;12.12;74.26;97874.22;4973449;28;20583;-74
2023/10/31 05:11:30;;;;;;;9.05;6.25;;;;;;;12.12;74.13;97862.84;4973403;28;20498;-78
2023/10/31 05:13:56;;;;;;;9.93;6.40;;;;;;;12.12;74.49;97871.56;4973245;28;20057;-77
2023/10/31 05:16:23;;;;;;;11.38;5.70;;;;;;;12.13;74.22;97885.59;4973172;28;20539;-73
2023/10/31 05:18:50;;;;;;;8.60;6.50;;;;;;;12.13;74.50;97890.88;4973318;28;20054;-79
2023/10/31 05:21:20;;;;;;;10.27;6.72;;;;;;;12.12;74.66;97887.41;4972237;28;20054;-75
2023/10/31 05:23:47;;;;;;;10.63;6.47;;;;;;;12.15;74.46;97888.09;4973139;28;20047;-76
2023/10/31 05:26:13;;;;;;;9.77;6.50;;;;;;;12.16;74.46;97892.38;4971912;28;20495;-74
2023/10/31 05:28:40;;;;;;;7.15;5.95;;;;;;;12.17;74.63;97891.41;4973136;28;20047;-80
2023/10/31 05:31:07;;;;;;;10.35;6.68;;;;;;;12.18;74.23;97895.72;4972718;28;20487;-81
2023/10/31 05:33:33;;;;;;;10.50;6.43;;;;;;;12.20;74.32;97896.41;4972252;28;20377;-76
2023/10/31 05:36:01;;;;;;;7.72;5.90;;;;;;;12.20;74.37;97902.53;4973303;28;20039;-75
2023/10/31 05:38:28;;;;;;;8.63;6.20;;;;;;;12.20;74.28;97905.16;4973251;28;20055;-77
2023/10/31 05:40:54;;;;;;;7.50;5.72;;;;;;;12.20;74.28;97899.88;4972528;28;20399;-77
2023/10/31 05:43:21;;;;;;;10.65;6.05;;;;;;;12.19;74.04;97902.66;4972854;28;20051;-77
2023/10/31 05:45:47;;;;;;;7.30;5.63;;;;;;;12.20;74.28;97904.31;4971472;28;20050;-74
2023/10/31 05:48:14;;;;;;;6.72;5.45;;;;;;;12.18;74.09;97909.72;4971672;28;20050;-76
2023/10/31 05:50:42;;;;;;;8.57;5.68;;;;;;;12.18;74.24;97914.19;4971517;28;20663;-76
2023/10/31 05:53:09;;;;;;;7.28;5.55;;;;;;;12.17;74.21;97915.16;4971285;28;20090;-76
2023/10/31 05:55:38;;;;;;;6.63;5.20;;;;;;;12.14;74.52;97928.66;4971604;28;20090;-77
2023/10/31 05:58:05;;;;;;;6.68;5.53;;;;;;;12.15;74.04;97930.31;4972955;28;20055;-76
2023/10/31 06:00:32;;;;;;;6.95;5.15;;;;;;;12.14;74.34;97937.38;4972567;28;20050;-77
2023/10/31 06:02:58;;;;;;;5.00;4.47;;;;;;;12.12;74.12;97937.50;4971142;28;20042;-77
2023/10/31 06:05:25;;;;;;;6.07;4.60;;;;;;;12.11;74.31;97935.84;4972719;28;20509;-82
2023/10/31 06:07:51;;;;;;;5.30;4.45;;;;;;;12.09;74.16;97943.09;4971025;28;20054;-78
2023/10/31 06:10:18;;;;;;;4.65;4.15;;;;;;;12.08;74.24;97949.31;4971043;28;20054;-74
2023/10/31 06:12:44;;;;;;;5.47;4.38;;;;;;;12.07;74.21;97946.84;4972341;28;20105;-74
2023/10/31 06:15:11;;;;;;;5.88;4.22;;;;;;;12.07;74.36;97949.47;4972508;28;20105;-77
2023/10/31 06:17:38;;;;;;;4.90;3.80;;;;;;;12.06;74.32;97951.28;4971080;28;20098;-78
2023/10/31 06:20:07;;;;;;;6.53;4.35;;;;;;;12.06;74.48;97956.56;4972141;28;20054;-74
2023/10/31 06:22:33;;;;;;;5.25;4.00;;;;;;;12.07;74.42;97962.66;4971292;28;20106;-84
2023/10/31 06:25:00;;;;;;;5.90;3.85;;;;;;;12.07;74.67;97960.84;4971266;28;20134;-80
2023/10/31 06:27:26;;;;;;;5.47;4.18;;;;;;;12.07;74.54;97968.75;4972209;28;20046;-73
2023/10/31 06:29:55;;;;;;;4.18;3.70;;;;;;;12.06;74.53;97967.09;4972378;28;20058;-76
2023/10/31 06:32:41;;;;;;;3.70;3.08;;;;;;;12.07;74.39;97970.56;4972376;28;20043;-73
2023/10/31 06:35:08;;;;;;;6.93;3.65;;;;;;;12.07;74.56;97971.41;4971105;28;20678;-77
2023/10/31 06:37:36;;;;;;;5.93;4.05;;;;;;;12.08;74.67;97977.50;4972027;28;20047;-77
2023/10/31 06:40:04;;;;;;;3.88;3.20;;;;;;;12.07;74.62;97987.22;4972449;28;20055;-78
2023/10/31 06:42:30;;;;;;;4.00;3.17;;;;;;;12.08;74.63;97983.59;4971005;28;20055;-77
2023/10/31 06:44:57;;;;;;;4.65;3.55;;;;;;;12.08;74.46;97985.44;4974009;28;20051;-75
2023/10/31 06:47:23;;;;;;;4.13;3.72;;;;;;;12.07;74.54;97992.50;4974719;28;20458;-77
2023/10/31 06:49:50;;;;;;;4.18;3.40;;;;;;;12.09;74.56;98001.13;4974859;28;20082;-75
2023/10/31 06:52:16;;;;;;;4.18;3.13;;;;;;;12.09;74.59;98011.66;4974930;28;20369;-79
2023/10/31 06:54:43;;;;;;;3.95;3.03;;;;;;;12.10;74.56;98020.38;4976231;28;20492;-81
2023/10/31 06:57:09;;;;;;;3.47;3.03;;;;;;;12.09;74.50;98016.94;4975761;28;20086;-75
2023/10/31 06:59:36;;;;;;;3.97;3.10;;;;;;;12.09;74.62;98019.56;4974480;28;20122;-74
2023/10/31 07:02:02;;;;;;;4.25;3.30;;;;;;;12.10;74.72;98031.78;4974611;28;20057;-73
2023/10/31 07:04:29;;;;;;;4.25;2.63;;;;;;;12.10;74.67;98034.41;4974531;28;20054;-73
2023/10/31 07:06:57;;;;;;;3.60;3.03;;;;;;;12.11;74.77;98030.81;4974472;28;20050;-79
2023/10/31 07:09:25;;;;;;;3.80;2.95;;;;;;;12.13;74.72;98035.94;4974319;28;20043;-75
2023/10/31 07:11:52;;;;;;;3.28;2.97;;;;;;;12.15;74.63;98035.81;4974364;28;20742;-72
2023/10/31 07:14:19;;;;;;;3.40;3.08;;;;;;;12.15;74.78;98041.88;4975424;28;20086;-76
2023/10/31 07:16:45;;;;;;;5.40;3.40;;;;;;;12.17;74.73;98045.25;4975609;28;20086;-75
2023/10/31 07:19:12;;;;;;;3.47;2.83;;;;;;;12.19;74.67;98045.09;4975423;28;20047;-76
2023/10/31 07:21:39;;;;;;;3.38;2.92;;;;;;;12.20;74.79;98050.25;4975318;28;20086;-76
2023/10/31 07:24:08;;;;;;;3.97;3.30;;;;;;;12.22;74.62;98052.72;4975335;28;20090;-75
2023/10/31 07:26:35;;;;;;;5.35;3.05;;;;;;;12.24;74.83;98054.25;4975206;28;20061;-75
2023/10/31 07:29:02;;;;;;;4.78;3.53;;;;;;;12.27;74.74;98057.56;4973758;28;20043;-74
2023/10/31 07:31:28;;;;;;;3.78;3.33;;;;;;;12.28;74.53;98056.59;4975094;28;20047;-74
2023/10/31 07:33:56;;;;;;;5.50;3.60;;;;;;;12.29;74.63;98064.38;4975261;28;20058;-76
2023/10/31 07:36:22;;;;;;;5.75;3.22;;;;;;;12.30;74.87;98071.31;4975110;28;20054;-77
2023/10/31 07:38:49;;;;;;;3.47;3.17;;;;;;;12.32;74.63;98065.91;4975296;28;20074;-75
2023/10/31 07:41:15;;;;;;;5.22;3.90;;;;;;;12.33;74.70;98062.28;4974825;28;20051;-73
2023/10/31 07:43:42;;;;;;;5.25;3.40;;;;;;;12.34;74.76;98056.88;4973628;28;20047;-76
2023/10/31 07:46:09;;;;;;;3.85;3.47;;;;;;;12.35;74.93;98061.19;4974967;28;20470;-81
2023/10/31 07:48:35;;;;;;;4.13;3.22;;;;;;;12.37;74.71;98061.88;4974959;28;20050;-75
2023/10/31 07:51:02;;;;;;;3.70;3.40;;;;;;;12.39;74.74;98064.38;4974583;28;20095;-73
2023/10/31 07:53:28;;;;;;;4.32;3.42;;;;;;;12.41;74.83;98065.06;4973400;28;20058;-81
2023/10/31 07:55:56;;;;;;;3.25;2.95;;;;;;;12.43;74.77;98065.75;4973688;28;20109;-76
2023/10/31 07:58:22;;;;;;;3.10;2.80;;;;;;;12.44;74.57;98070.06;4974657;28;20102;-75
2023/10/31 08:00:49;;;;;;;3.92;3.10;;;;;;;12.46;74.45;98069.91;4973288;28;20455;-82
2023/10/31 08:03:15;;;;;;;3.85;2.80;;;;;;;12.47;74.29;98071.56;4973540;28;20051;-78
2023/10/31 08:05:42;;;;;;;3.25;2.72;;;;;;;12.47;74.53;98084.75;4974215;28;20051;-76
2023/10/31 08:08:09;;;;;;;5.68;2.60;;;;;;;12.48;74.46;98078.50;4974622;28;20090;-80
2023/10/31 08:10:35;;;;;;;3.00;2.70;;;;;;;12.48;74.08;98086.44;4974293;28;20049;-76
2023/10/31 08:13:02;;;;;;;4.47;2.80;;;;;;;12.49;74.41;98077.56;4974414;28;20051;-77
2023/10/31 08:15:29;;;;;;;4.85;2.40;;;;;;;12.50;74.42;98082.69;4974355;28;20062;-76
2023/10/31 08:17:55;;;;;;;3.53;2.15;;;;;;;12.52;74.30;98077.25;4974478;28;20051;-79
2023/10/31 08:20:22;;;;;;;2.85;2.33;;;;;;;12.54;74.93;98074.47;4974391;28;20126;-71
2023/10/31 08:22:48;;;;;;;2.63;2.00;;;;;;;12.56;74.65;98072.53;4974344;28;20054;-75
2023/10/31 08:25:15;;;;;;;2.85;2.10;;;;;;;12.58;74.45;98083.78;4972816;28;20479;-79
2023/10/31 08:27:41;;;;;;;3.00;2.13;;;;;;;12.60;74.26;98095.03;4973173;28;20440;-72
2023/10/31 08:30:09;;;;;;;2.20;1.83;;;;;;;12.61;74.01;98084.34;4973117;28;20133;-73
2023/10/31 08:32:35;;;;;;;2.13;1.48;;;;;;;12.62;74.17;98090.44;4973243;28;20105;-78
2023/10/31 08:35:02;;;;;;;2.65;1.58;;;;;;;12.66;74.29;98088.34;4972869;28;20491;-77
2023/10/31 09:12:58;;;;;;;5.28;2.20;;;;;;;12.90;73.48;98146.78;4981428;23;20074;-77
2023/10/31 09:15:25;;;;;;;3.50;2.25;;;;;;;12.88;73.42;98153.19;4973107;28;20080;-76
2023/10/31 09:17:52;;;;;;;4.00;2.58;;;;;;;12.86;73.57;98161.25;4973211;28;20047;-78
2023/10/31 09:20:18;;;;;;;3.40;2.60;;;;;;;12.85;73.60;98169.31;4972347;28;20058;-75
2023/10/31 09:22:45;;;;;;;5.88;2.75;;;;;;;12.81;73.71;98168.78;4973021;28;20146;-76
2023/10/31 09:25:12;;;;;;;5.63;3.00;;;;;;;12.80;74.04;98167.13;4972843;28;20164;-76
2023/10/31 09:27:41;;;;;;;3.63;3.13;;;;;;;12.77;74.19;98164.75;4972587;28;20047;-78
2023/10/31 09:30:08;;;;;;;6.03;2.75;;;;;;;12.80;74.37;98176.84;4972799;28;20055;-75
2023/10/31 09:32:35;;;;;;;4.07;2.83;;;;;;;12.78;74.38;98171.69;4972829;28;20069;-76
2023/10/31 09:35:02;;;;;;;3.17;2.88;;;;;;;12.80;74.59;98169.75;4972730;28;20058;-76
2023/10/31 09:37:29;;;;;;;4.25;2.90;;;;;;;12.82;74.73;98181.00;4972667;28;20061;-76
2023/10/31 09:39:55;;;;;;;6.70;3.20;;;;;;;12.84;74.72;98184.34;4972399;28;20097;-78
2023/10/31 09:42:22;;;;;;;6.07;3.05;;;;;;;12.88;74.79;98195.44;4971178;28;20054;-76
2023/10/31 09:44:48;;;;;;;5.30;3.17;;;;;;;12.90;74.65;98201.44;4972554;28;20086;-76
2023/10/31 09:47:15;;;;;;;3.95;3.20;;;;;;;12.93;74.82;98200.31;4971283;28;20065;-76
2023/10/31 09:49:42;;;;;;;4.47;3.22;;;;;;;12.94;74.64;98208.09;4972312;28;20069;-76
2023/10/31 09:52:10;;;;;;;4.45;2.67;;;;;;;12.97;74.74;98204.34;4972226;28;20047;-76
2023/10/31 09:54:38;;;;;;;5.72;2.75;;;;;;;13.00;74.98;98196.13;4972260;28;20093;-76
2023/10/31 09:57:04;;;;;;;3.72;2.92;;;;;;;13.05;75.23;98212.41;4972278;28;20050;-76
2023/10/31 09:59:31;;;;;;;5.28;2.60;;;;;;;13.11;75.37;98213.63;4972364;28;20145;-78
2023/10/31 10:01:57;;;;;;;4.10;2.95;;;;;;;13.16;75.37;98214.84;4972262;28;20558;-76
2023/10/31 10:04:25;;;;;;;3.08;2.55;;;;;;;13.24;75.55;98218.59;4972324;28;20047;-76
2023/10/31 10:06:58;;;;;;;5.88;2.85;;;;;;;13.32;75.64;98228.44;4972285;28;20526;-78
2023/10/31 10:09:25;;;;;;;4.25;2.50;;;;;;;13.39;75.23;98218.97;4970944;28;20058;-76
2023/10/31 10:11:52;;;;;;;4.38;2.63;;;;;;;13.48;74.78;98236.66;4972448;28;20061;-78
2023/10/31 10:14:23;;;;;;;4.28;2.97;;;;;;;13.52;74.51;98245.13;4972237;28;20106;-76
2023/10/31 10:16:50;;;;;;;3.30;2.47;;;;;;;13.58;74.46;98249.00;4972375;28;20137;-76
2023/10/31 10:19:19;;;;;;;4.20;2.22;;;;;;;13.62;74.43;98242.44;4971768;28;20059;-76
2023/10/31 10:21:51;;;;;;;3.55;2.15;;;;;;;13.64;74.22;98249.25;4972051;28;20043;-77
2023/10/31 10:24:19;;;;;;;12.55;2.70;;;;;;;13.67;74.45;98264.84;4972336;28;20050;-77
2023/10/31 10:26:46;;;;;;;4.47;2.67;;;;;;;13.72;74.26;98263.56;4970791;28;20054;-76
2023/10/31 10:29:13;;;;;;;3.22;2.10;;;;;;;13.75;74.63;98261.47;4970762;28;20109;-77
2023/10/31 10:31:40;;;;;;;3.40;2.30;;;;;;;13.82;74.88;98261.72;4970886;28;20051;-78
2023/10/31 10:34:09;;;;;;;6.85;2.80;;;;;;;13.88;74.75;98260.31;4972006;28;20459;-77
2023/10/31 10:36:36;;;;;;;3.90;2.20;;;;;;;13.96;74.77;98259.56;4972033;28;20051;-76
2023/10/31 10:39:03;;;;;;;3.97;2.20;;;;;;;14.03;74.46;98263.28;4970707;28;20050;-79
2023/10/31 10:41:34;;;;;;;3.28;2.30;;;;;;;14.07;73.58;98269.97;4971845;28;20042;-76
2023/10/31 10:44:06;;;;;;;2.92;2.25;;;;;;;14.14;73.51;98276.34;4971963;28;20484;-79
2023/10/31 10:46:35;;;;;;;4.13;2.20;;;;;;;14.19;73.42;98281.19;4971964;28;20051;-78
2023/10/31 10:49:06;;;;;;;3.63;2.08;;;;;;;14.19;72.52;98278.53;4971585;28;20298;-77
2023/10/31 10:51:50;;;;;;;3.55;1.63;;;;;;;14.17;72.28;98288.44;4971900;28;20059;-78
2023/10/31 10:54:31;;;;;;;3.90;2.10;;;;;;;14.16;72.08;98279.66;4970758;28;20057;-76
2023/10/31 10:57:20;;;;;;;4.65;1.90;;;;;;;14.14;72.00;98286.94;4970771;28;20047;-75
2023/10/31 10:59:51;;;;;;;4.20;1.95;;;;;;;14.15;72.21;98283.28;4970368;28;20561;-75
2023/10/31 11:02:18;;;;;;;2.38;1.77;;;;;;;14.14;72.57;98284.28;4971598;28;20109;-76
2023/10/31 11:04:45;;;;;;;4.13;1.83;;;;;;;14.15;72.55;98291.22;4971575;28;20527;-77
2023/10/31 11:07:13;;;;;;;3.45;1.35;;;;;;;14.15;72.67;98295.69;4971573;28;20043;-78
2023/10/31 11:09:41;;;;;;;2.80;1.50;;;;;;;14.14;72.70;98305.44;4971459;28;20062;-77
2023/10/31 11:12:10;;;;;;;3.15;1.33;;;;;;;14.17;72.84;98305.13;4971612;28;20051;-75
2023/10/31 11:14:37;;;;;;;3.33;1.40;;;;;;;14.20;73.06;98311.94;4971804;28;20050;-76
2023/10/31 11:17:14;;;;;;;2.97;1.23;;;;;;;14.21;72.45;98316.28;4971526;28;20061;-77
2023/10/31 11:19:41;;;;;;;2.90;1.35;;;;;;;14.26;72.42;98315.81;4971699;28;20055;-79
2023/10/31 11:22:07;;;;;;;3.38;1.40;;;;;;;14.27;72.24;98309.53;4970186;28;20454;-77
2023/10/31 11:24:37;;;;;;;3.97;1.40;;;;;;;14.25;71.49;98315.00;4970203;28;20086;-76
2023/10/31 11:27:05;;;;;;;5.20;1.50;;;;;;;14.25;71.38;98315.00;4970936;28;20055;-76
2023/10/31 11:29:32;;;;;;;3.13;1.10;;;;;;;14.26;71.45;98318.47;4970588;28;20047;-76
2023/10/31 11:31:59;;;;;;;1.48;0.90;;;;;;;14.24;71.40;98320.44;4972587;28;20046;-76
2023/10/31 11:34:27;;;;;;;1.38;0.90;;;;;;;14.22;71.64;98325.03;4974274;28;20059;-77
2023/10/31 11:37:31;;;;;;;4.72;1.35;;;;;;;14.22;72.21;98330.31;4974469;28;20046;-77
2023/10/31 11:40:14;;;;;;;5.97;1.17;;;;;;;14.46;74.95;98327.13;4974882;28;20106;-76
2023/10/31 11:42:41;;;;;;;1.73;1.17;;;;;;;14.87;79.57;98325.94;4974823;28;20059;-77
2023/10/31 11:45:09;;;;;;;2.90;1.10;;;;;;;15.34;79.05;98324.84;4974554;28;20113;-77
2023/10/31 11:47:49;;;;;;;2.45;1.23;;;;;;;15.90;75.63;98325.38;4973609;28;20055;-77
2023/10/31 11:50:17;;;;;;;6.32;1.48;;;;;;;16.48;76.43;98329.34;4973138;28;20054;-76
2023/10/31 11:52:44;;;;;;;2.72;1.48;;;;;;;16.95;74.19;98333.25;4974673;28;20095;-76
2023/10/31 11:55:11;;;;;;;1.75;1.10;;;;;;;17.36;73.42;98335.13;4974578;28;20047;-76
2023/10/31 11:57:39;;;;;;;2.53;0.90;;;;;;;17.76;72.88;98332.56;4974455;28;20053;-78
2023/10/31 12:00:07;;;;;;;2.20;1.10;;;;;;;18.05;69.08;98325.03;4973001;28;20137;-77
2023/10/31 12:02:33;;;;;;;4.88;0.90;;;;;;;18.21;66.37;98337.50;4973305;28;20055;-77
2023/10/31 12:05:12;;;;;;;1.77;1.00;;;;;;;18.15;63.38;98348.81;4974261;28;20050;-76
2023/10/31 12:07:43;;;;;;;5.20;1.20;;;;;;;18.04;62.65;98348.16;4974403;28;20055;-77